createdAt,value
2018-08-13T00:01:05.564Z,61.30
2018-08-13T00:03:34.062Z,61.80
2018-08-13T00:06:02.870Z,62.00
2018-08-13T00:08:31.437Z,62.20
2018-08-13T00:11:00.239Z,62.40
2018-08-13T00:13:28.745Z,62.60
2018-08-13T00:15:57.565Z,62.80
2018-08-13T00:18:26.698Z,63.00
2018-08-13T00:20:55.234Z,63.30
2018-08-13T00:23:23.717Z,63.40
2018-08-13T00:25:52.883Z,63.60
2018-08-13T00:28:21.358Z,63.50
2018-08-13T00:30:50.201Z,64.00
2018-08-13T00:33:18.682Z,64.20
2018-08-13T00:35:47.189Z,64.30
2018-08-13T00:38:16.001Z,64.40
2018-08-13T00:40:44.503Z,65.20
2018-08-13T00:43:13.027Z,64.80
2018-08-13T00:45:41.549Z,65.00
2018-08-13T00:48:10.077Z,65.10
2018-08-13T00:50:38.593Z,65.70
2018-08-13T00:53:07.097Z,65.80
2018-08-13T00:55:35.928Z,66.00
2018-08-13T00:58:04.764Z,66.10
2018-08-13T01:00:33.604Z,66.30
2018-08-13T01:03:02.437Z,66.20
2018-08-13T01:05:31.601Z,66.70
2018-08-13T01:08:00.389Z,66.70
2018-08-13T01:10:29.233Z,66.80
2018-08-13T01:12:57.725Z,67.20
2018-08-13T01:15:26.255Z,67.00
2018-08-13T01:17:54.759Z,67.80
2018-08-13T01:20:23.254Z,67.90
2018-08-13T01:22:52.096Z,68.60
2018-08-13T01:25:21.079Z,68.00
2018-08-13T01:27:49.925Z,68.20
2018-08-13T01:30:19.415Z,68.50
2018-08-13T01:32:48.229Z,68.40
2018-08-13T01:35:17.438Z,68.60
2018-08-13T01:37:45.929Z,68.70
2018-08-13T01:40:14.446Z,68.80
2018-08-13T01:42:43.278Z,69.00
2018-08-13T01:45:12.871Z,69.20
2018-08-13T01:47:41.966Z,68.90
2018-08-13T01:50:11.490Z,69.00
2018-08-13T01:52:40.627Z,68.80
2018-08-13T01:55:09.989Z,69.50
2018-08-13T01:57:38.526Z,69.60
2018-08-13T02:00:12.338Z,69.60
2018-08-13T02:02:41.539Z,69.50
2018-08-13T02:05:10.061Z,70.90
2018-08-13T02:07:38.932Z,70.10
2018-08-13T02:10:10.234Z,70.50
2018-08-13T02:12:38.993Z,70.80
2018-08-13T02:15:07.958Z,70.80
2018-08-13T02:17:36.470Z,70.90
2018-08-13T02:20:07.090Z,70.70
2018-08-13T02:22:35.643Z,70.90
2018-08-13T02:25:05.434Z,71.20
2018-08-13T02:27:34.479Z,71.30
2018-08-13T02:30:03.069Z,71.40
2018-08-13T02:32:32.251Z,71.60
2018-08-13T02:35:00.737Z,71.70
2018-08-13T02:37:29.597Z,72.00
2018-08-13T02:39:59.028Z,72.20
2018-08-13T02:42:27.556Z,72.20
2018-08-13T02:44:56.395Z,72.10
2018-08-13T02:47:25.238Z,72.70
2018-08-13T02:49:54.041Z,72.80
2018-08-13T02:52:22.517Z,72.80
2018-08-13T02:54:51.012Z,72.80
2018-08-13T02:57:20.160Z,72.90
2018-08-13T02:59:48.974Z,73.10
2018-08-13T03:02:17.487Z,73.30
2018-08-13T03:04:47.323Z,73.00
2018-08-13T03:07:16.594Z,73.80
2018-08-13T03:09:45.074Z,73.70
2018-08-13T03:12:13.581Z,74.00
2018-08-13T03:14:42.164Z,74.10
2018-08-13T03:17:11.742Z,74.10
2018-08-13T03:19:40.561Z,74.20
2018-08-13T03:22:09.357Z,74.30
2018-08-13T03:24:38.193Z,74.10
2018-08-13T03:27:06.693Z,74.60
2018-08-13T03:29:35.185Z,74.70
2018-08-13T03:32:04.041Z,75.00
2018-08-13T03:34:32.553Z,75.00
2018-08-13T03:37:01.365Z,74.80
2018-08-13T03:39:29.858Z,75.60
2018-08-13T03:41:58.684Z,75.70
2018-08-13T03:44:27.548Z,75.60
2018-08-13T03:46:56.045Z,75.80
2018-08-13T03:49:24.544Z,76.00
2018-08-13T03:51:53.400Z,76.10
2018-08-13T03:54:22.387Z,75.90
2018-08-13T03:56:50.881Z,75.90
2018-08-13T03:59:19.371Z,75.90
2018-08-13T04:01:48.548Z,75.90
2018-08-13T04:04:17.042Z,76.00
2018-08-13T04:06:45.549Z,76.20
2018-08-13T04:09:15.005Z,76.10
2018-08-13T04:11:44.150Z,76.20
2018-08-13T04:14:12.656Z,76.20
2018-08-13T04:16:45.687Z,76.10
2018-08-13T04:19:14.509Z,76.40
2018-08-13T04:21:43.665Z,76.30
2018-08-13T04:24:12.181Z,76.40
2018-08-13T04:26:40.689Z,76.20
2018-08-13T04:29:09.521Z,76.50
2018-08-13T04:31:38.030Z,76.20
2018-08-13T04:34:07.197Z,75.90
2018-08-13T04:36:36.041Z,75.70
2018-08-13T04:39:08.265Z,75.70
2018-08-13T04:41:37.085Z,75.60
2018-08-13T04:44:05.994Z,75.40
2018-08-13T04:46:34.507Z,75.50
2018-08-13T04:49:03.380Z,75.50
2018-08-13T04:51:31.873Z,75.40
2018-08-13T04:54:00.701Z,75.20
2018-08-13T04:56:29.345Z,75.10
2018-08-13T04:58:57.852Z,75.00
2018-08-13T05:01:26.765Z,75.00
2018-08-13T05:03:55.669Z,74.70
2018-08-13T05:06:25.536Z,74.30
2018-08-13T05:08:54.029Z,74.00
2018-08-13T05:11:22.591Z,74.00
2018-08-13T05:13:51.534Z,73.90
2018-08-13T05:16:20.058Z,73.60
2018-08-13T05:18:48.970Z,73.50
2018-08-13T05:21:18.216Z,73.20
2018-08-13T05:23:46.886Z,73.00
2018-08-13T05:26:15.364Z,72.60
2018-08-13T05:28:44.193Z,72.40
2018-08-13T05:31:12.730Z,72.10
2018-08-13T05:33:42.562Z,71.90
2018-08-13T05:36:11.050Z,71.40
2018-08-13T05:38:39.886Z,71.20
2018-08-13T05:41:08.693Z,71.10
2018-08-13T05:43:37.509Z,71.00
2018-08-13T05:46:06.018Z,70.50
2018-08-13T05:48:34.823Z,69.40
2018-08-13T05:51:03.652Z,69.80
2018-08-13T05:53:32.527Z,69.30
2018-08-13T05:56:01.065Z,69.10
2018-08-13T05:58:29.673Z,68.80
2018-08-13T06:00:58.201Z,68.50
2018-08-13T06:03:27.041Z,68.30
2018-08-13T06:05:55.553Z,68.00
2018-08-13T06:08:24.391Z,67.70
2018-08-13T06:10:53.249Z,67.40
2018-08-13T06:13:22.278Z,67.20
2018-08-13T06:15:52.239Z,66.70
2018-08-13T06:18:20.752Z,66.10
2018-08-13T06:20:49.585Z,65.90
2018-08-13T06:23:18.412Z,66.50
2018-08-13T06:25:46.939Z,65.20
2018-08-13T06:28:15.543Z,64.80
2018-08-13T06:30:44.168Z,64.40
2018-08-13T06:33:13.825Z,64.10
2018-08-13T06:35:42.649Z,63.30
2018-08-13T06:38:11.478Z,63.30
2018-08-13T06:40:40.316Z,62.70
2018-08-13T06:43:08.804Z,63.00
2018-08-13T06:45:37.352Z,62.60
2018-08-13T06:48:06.326Z,62.60
2018-08-13T06:50:34.804Z,62.10
2018-08-13T06:53:03.284Z,62.00
2018-08-13T06:55:32.320Z,60.80
2018-08-13T06:58:01.852Z,61.00
2018-08-13T07:00:30.317Z,60.40
2018-08-13T07:02:59.136Z,60.30
2018-08-13T07:05:27.878Z,59.80
2018-08-13T07:07:56.373Z,59.50
2018-08-13T07:10:25.672Z,59.50
2018-08-13T07:12:55.264Z,59.20
2018-08-13T07:15:24.493Z,58.70
2018-08-13T07:17:53.555Z,58.20
2018-08-13T07:20:21.820Z,58.20
2018-08-13T07:22:50.410Z,58.10
2018-08-13T07:25:19.519Z,57.20
2018-08-13T07:27:47.817Z,57.20
2018-08-13T07:30:16.801Z,57.10
2018-08-13T07:32:45.403Z,56.90
2018-08-13T07:35:13.962Z,56.80
2018-08-13T07:37:43.613Z,56.40
2018-08-13T07:40:13.821Z,56.00
2018-08-13T07:42:42.580Z,55.80
2018-08-13T07:45:11.380Z,55.60
2018-08-13T07:47:39.617Z,55.10
2018-08-13T07:50:09.653Z,54.70
2018-08-13T07:52:38.222Z,54.00
2018-08-13T07:55:06.763Z,53.80
2018-08-13T07:57:35.075Z,53.30
2018-08-13T08:00:03.515Z,53.50
2018-08-13T08:02:32.561Z,52.90
2018-08-13T08:05:00.783Z,52.70
2018-08-13T08:07:29.357Z,52.30
2018-08-13T08:09:57.566Z,52.10
2018-08-13T08:12:25.965Z,51.60
2018-08-13T08:14:54.193Z,51.40
2018-08-13T08:17:22.448Z,50.90
2018-08-13T08:19:51.011Z,50.60
2018-08-13T08:22:19.299Z,50.40
2018-08-13T08:24:48.201Z,50.20
2018-08-13T08:27:16.441Z,49.90
2018-08-13T08:29:45.008Z,49.70
2018-08-13T08:32:13.237Z,49.60
2018-08-13T08:34:41.951Z,49.50
2018-08-13T08:37:10.394Z,49.70
2018-08-13T08:39:38.952Z,49.50
2018-08-13T08:42:07.205Z,49.00
2018-08-13T08:44:36.101Z,48.60
2018-08-13T08:47:04.929Z,48.70
2018-08-13T08:49:33.502Z,48.00
2018-08-13T08:52:02.592Z,49.00
2018-08-13T08:54:31.162Z,48.30
2018-08-13T08:56:59.557Z,48.10
2018-08-13T08:59:27.774Z,47.70
2018-08-13T09:01:56.029Z,47.50
2018-08-13T09:04:24.594Z,47.70
2018-08-13T09:06:52.814Z,47.70
2018-08-13T09:09:21.372Z,47.60
2018-08-13T09:11:49.924Z,47.30
2018-08-13T09:14:18.207Z,47.10
2018-08-13T09:16:48.253Z,45.30
2018-08-13T09:19:27.903Z,45.40
2018-08-13T09:22:07.142Z,45.20
2018-08-13T09:24:46.825Z,45.40
2018-08-13T09:27:26.594Z,45.00
2018-08-13T09:31:08.909Z,44.80
2018-08-13T09:33:48.629Z,44.80
2018-08-13T09:36:17.201Z,44.60
2018-08-13T09:38:46.035Z,44.30
2018-08-13T09:48:13.799Z,43.70
2018-08-13T09:50:42.210Z,43.10
2018-08-13T09:53:10.765Z,41.60
2018-08-13T09:55:38.989Z,41.10
2018-08-13T09:58:07.970Z,41.00
2018-08-13T10:00:41.985Z,40.10
2018-08-13T10:03:10.574Z,40.00
2018-08-13T10:05:38.804Z,39.10
2018-08-13T10:08:07.054Z,39.30
2018-08-13T10:10:36.565Z,39.50
2018-08-13T10:13:04.830Z,39.60
2018-08-13T10:15:33.069Z,39.20
2018-08-13T10:18:02.041Z,39.20
2018-08-13T10:20:31.049Z,39.20
2018-08-13T10:23:00.141Z,38.30
2018-08-13T10:25:28.737Z,37.90
2018-08-13T10:27:56.966Z,38.50
2018-08-13T10:30:25.528Z,38.80
2018-08-13T10:32:53.746Z,38.40
2018-08-13T10:35:21.988Z,38.30
2018-08-13T10:37:50.238Z,38.80
2018-08-13T10:40:19.748Z,37.70
2018-08-13T10:42:48.387Z,38.20
2018-08-13T10:45:16.862Z,37.60
2018-08-13T10:47:45.143Z,37.10
2018-08-13T10:50:14.958Z,37.00
2018-08-13T10:52:43.541Z,37.10
2018-08-13T10:55:14.041Z,37.10
2018-08-13T10:57:42.697Z,36.30
2018-08-13T11:00:17.765Z,35.90
2018-08-13T11:02:46.002Z,35.90
2018-08-13T11:05:15.916Z,35.80
2018-08-13T11:07:44.508Z,34.80
2018-08-13T11:10:13.995Z,34.70
2018-08-13T11:12:42.459Z,33.80
2018-08-13T11:15:15.589Z,33.40
2018-08-13T11:17:43.847Z,34.00
2018-08-13T11:20:12.165Z,33.00
2018-08-13T11:22:41.694Z,32.90
2018-08-13T11:25:11.826Z,33.00
2018-08-13T11:27:41.081Z,32.80
2018-08-13T11:30:11.358Z,33.10
2018-08-13T11:32:39.797Z,33.40
2018-08-13T11:35:09.437Z,33.80
2018-08-13T11:37:37.687Z,33.20
2018-08-13T11:40:11.079Z,32.80
2018-08-13T11:42:40.052Z,32.90
2018-08-13T11:45:10.178Z,32.70
2018-08-13T11:47:39.813Z,32.60
2018-08-13T11:50:19.288Z,32.40
2018-08-13T11:52:48.679Z,32.80
2018-08-13T11:55:19.088Z,32.40
2018-08-13T11:57:48.761Z,32.30
2018-08-13T12:00:17.040Z,33.40
2018-08-13T12:02:45.293Z,32.70
2018-08-13T12:05:14.714Z,32.80
2018-08-13T12:07:43.614Z,33.30
2018-08-13T12:10:12.708Z,33.40
2018-08-13T12:12:42.209Z,33.00
2018-08-13T12:15:11.518Z,33.00
2018-08-13T12:17:40.094Z,33.30
2018-08-13T12:20:10.693Z,33.50
2018-08-13T12:22:39.254Z,33.70
2018-08-13T12:25:08.111Z,33.80
2018-08-13T12:27:36.683Z,34.10
2018-08-13T12:30:08.142Z,34.20
2018-08-13T12:32:36.722Z,33.70
2018-08-13T12:35:06.297Z,34.20
2018-08-13T12:37:35.501Z,34.70
2018-08-13T12:40:04.381Z,33.80
2018-08-13T12:42:33.167Z,34.20
2018-08-13T12:45:01.391Z,34.10
2018-08-13T12:47:30.129Z,34.00
2018-08-13T12:49:58.358Z,33.50
2018-08-13T12:52:26.620Z,33.50
2018-08-13T12:54:55.173Z,33.50
2018-08-13T12:57:23.717Z,34.00
2018-08-13T12:59:52.238Z,34.10
2018-08-13T13:02:20.483Z,34.00
2018-08-13T13:04:49.984Z,34.00
2018-08-13T13:07:18.233Z,34.20
2018-08-13T13:09:46.443Z,33.80
2018-08-13T13:12:14.780Z,33.90
2018-08-13T13:14:43.381Z,33.50
2018-08-13T13:17:12.434Z,33.70
2018-08-13T13:19:41.331Z,33.90
2018-08-13T13:22:09.598Z,33.80
2018-08-13T13:24:37.817Z,33.80
2018-08-13T13:27:06.375Z,33.70
2018-08-13T13:29:34.583Z,32.60
2018-08-13T13:32:03.149Z,32.80
2018-08-13T13:34:31.745Z,32.70
2018-08-13T13:37:00.154Z,32.70
2018-08-13T13:39:28.697Z,32.90
2018-08-13T13:41:56.925Z,33.20
2018-08-13T13:44:25.153Z,32.80
2018-08-13T13:46:53.359Z,32.90
2018-08-13T13:49:21.620Z,32.80
2018-08-13T13:51:49.833Z,32.90
2018-08-13T13:54:18.398Z,33.10
2018-08-13T13:56:48.026Z,33.90
2018-08-13T13:59:16.595Z,33.60
2018-08-13T14:01:45.472Z,33.30
2018-08-13T14:04:14.038Z,33.50
2018-08-13T14:06:42.564Z,33.80
2018-08-13T14:09:12.134Z,34.00
2018-08-13T14:11:40.353Z,34.00
2018-08-13T14:14:10.228Z,34.50
2018-08-13T14:16:38.534Z,35.40
2018-08-13T14:19:07.127Z,36.10
2018-08-13T14:21:35.361Z,37.30
2018-08-13T14:24:03.681Z,40.80
2018-08-13T14:26:32.224Z,41.70
2018-08-13T14:29:00.493Z,43.00
2018-08-13T14:31:28.747Z,42.10
2018-08-13T14:33:57.312Z,41.20
2018-08-13T14:36:25.524Z,41.90
2018-08-13T14:38:53.785Z,40.70
2018-08-13T14:41:22.342Z,39.70
2018-08-13T14:43:50.534Z,40.00
2018-08-13T14:46:18.765Z,39.00
2018-08-13T14:48:46.964Z,38.50
2018-08-13T14:51:15.286Z,38.50
2018-08-13T14:53:43.690Z,38.20
2018-08-13T14:56:12.271Z,38.70
2018-08-13T14:58:40.493Z,38.90
2018-08-13T15:01:09.062Z,39.20
2018-08-13T15:03:37.646Z,39.50
2018-08-13T15:06:06.324Z,39.50
2018-08-13T15:08:34.952Z,39.80
2018-08-13T15:11:03.182Z,39.80
2018-08-13T15:13:31.713Z,40.00
2018-08-13T15:16:00.256Z,40.20
2018-08-13T15:18:28.821Z,40.50
2018-08-13T15:20:57.052Z,40.60
2018-08-13T15:23:25.634Z,41.30
2018-08-13T15:25:53.962Z,42.20
2018-08-13T15:28:23.180Z,43.20
2018-08-13T15:30:52.128Z,43.90
2018-08-13T15:33:20.730Z,44.70
2018-08-13T15:35:49.765Z,45.40
2018-08-13T15:38:18.001Z,45.60
2018-08-13T15:40:46.233Z,46.10
2018-08-13T15:43:14.855Z,46.20
2018-08-13T15:45:43.092Z,46.70
2018-08-13T15:48:11.318Z,46.70
2018-08-13T15:50:39.836Z,47.00
2018-08-13T15:53:08.097Z,47.50
2018-08-13T15:55:36.693Z,48.10
2018-08-13T15:58:05.426Z,48.00
2018-08-13T16:00:33.661Z,48.20
2018-08-13T16:03:02.219Z,48.50
2018-08-13T16:05:30.457Z,48.80
2018-08-13T16:07:59.053Z,49.00
2018-08-13T16:10:27.452Z,49.30
2018-08-13T16:12:56.011Z,49.70
2018-08-13T16:15:24.695Z,49.80
2018-08-13T16:17:52.933Z,49.80
2018-08-13T16:20:21.513Z,50.00
2018-08-13T16:22:49.964Z,50.30
2018-08-13T16:25:18.437Z,50.40
2018-08-13T16:27:47.573Z,51.00
2018-08-13T16:30:31.896Z,51.70
2018-08-13T16:33:01.119Z,52.60
2018-08-13T16:35:29.717Z,53.80
2018-08-13T16:37:58.566Z,54.20
2018-08-13T16:40:27.707Z,54.00
2018-08-13T16:42:56.890Z,53.90
2018-08-13T16:45:25.911Z,54.00
2018-08-13T16:47:55.573Z,53.90
2018-08-13T16:50:29.495Z,54.30
2018-08-13T16:52:59.240Z,53.90
2018-08-13T16:55:28.456Z,53.80
2018-08-13T16:57:56.951Z,53.90
2018-08-13T17:00:26.798Z,53.80
2018-08-13T17:02:55.277Z,54.10
2018-08-13T17:05:24.767Z,54.40
2018-08-13T17:07:53.210Z,54.30
2018-08-13T17:10:23.109Z,54.30
2018-08-13T17:12:52.017Z,54.30
2018-08-13T17:15:20.410Z,54.30
2018-08-13T17:17:50.337Z,54.50
2018-08-13T17:20:22.533Z,54.60
2018-08-13T17:22:52.534Z,54.60
2018-08-13T17:25:20.909Z,54.80
2018-08-13T17:27:49.220Z,55.00
2018-08-13T17:30:24.597Z,55.20
2018-08-13T17:32:54.786Z,55.40
2018-08-13T17:35:25.885Z,55.50
2018-08-13T17:37:54.336Z,55.60
2018-08-13T17:40:23.724Z,55.90
2018-08-13T17:42:52.559Z,56.30
2018-08-13T17:45:20.975Z,57.00
2018-08-13T17:47:49.345Z,57.50
2018-08-13T17:50:19.532Z,57.90
2018-08-13T17:52:48.145Z,58.30
2018-08-13T17:55:16.838Z,58.90
2018-08-13T17:57:45.451Z,59.40
2018-08-13T18:00:16.583Z,59.50
2018-08-13T18:02:45.506Z,59.90
2018-08-13T18:05:15.923Z,60.10
2018-08-13T18:07:44.573Z,60.10
2018-08-13T18:10:15.850Z,60.20
2018-08-13T18:12:44.202Z,60.50
2018-08-13T18:15:14.890Z,61.10
2018-08-13T18:17:44.370Z,61.60
2018-08-13T18:20:12.909Z,62.00
2018-08-13T18:22:41.482Z,62.40
2018-08-13T18:25:11.549Z,62.50
2018-08-13T18:27:40.973Z,62.90
2018-08-13T18:30:13.972Z,62.90
2018-08-13T18:32:43.053Z,63.00
2018-08-13T18:35:11.703Z,62.80
2018-08-13T18:37:39.988Z,63.40
2018-08-13T18:40:11.256Z,63.30
2018-08-13T18:42:39.813Z,63.60
2018-08-13T18:45:09.441Z,63.80
2018-08-13T18:47:38.841Z,64.00
2018-08-13T18:50:10.294Z,64.00
2018-08-13T18:52:38.552Z,64.10
2018-08-13T18:55:07.777Z,64.40
2018-08-13T18:57:36.618Z,64.70
2018-08-13T19:00:07.727Z,64.80
2018-08-13T19:02:37.295Z,65.00
2018-08-13T19:05:05.677Z,65.50
2018-08-13T19:07:34.077Z,65.30
2018-08-13T19:10:02.390Z,65.60
2018-08-13T19:12:30.961Z,65.60
2018-08-13T19:14:59.588Z,65.70
2018-08-13T19:17:28.157Z,65.90
2018-08-13T19:19:56.746Z,66.00
2018-08-13T19:22:26.453Z,66.10
2018-08-13T19:24:55.797Z,66.40
2018-08-13T19:28:48.551Z,66.90
2018-08-13T19:31:16.770Z,68.00
2018-08-13T19:33:45.353Z,69.00
2018-08-13T19:36:13.629Z,69.00
2018-08-13T19:38:42.342Z,69.40
2018-08-13T19:41:10.893Z,68.90
2018-08-13T19:43:39.693Z,69.10
2018-08-13T19:46:07.999Z,69.00
2018-08-13T19:48:36.650Z,69.00
2018-08-13T19:51:04.863Z,68.80
2018-08-13T19:53:35.458Z,68.80
2018-08-13T19:56:03.703Z,68.70
2018-08-13T19:58:31.926Z,68.60
2018-08-13T20:01:00.542Z,69.00
2018-08-13T20:07:01.157Z,68.80
2018-08-13T20:09:29.417Z,69.40
2018-08-13T20:11:57.971Z,70.20
2018-08-13T20:14:26.554Z,71.60
2018-08-13T20:16:55.378Z,71.80
2018-08-13T20:19:23.701Z,72.60
2018-08-13T20:21:51.917Z,73.30
2018-08-13T20:24:20.534Z,74.10
2018-08-13T20:26:49.088Z,75.70
2018-08-13T20:29:17.698Z,76.60
2018-08-13T20:31:46.286Z,76.70
2018-08-13T20:34:14.509Z,76.80
2018-08-13T20:36:42.737Z,77.80
2018-08-13T20:39:14.614Z,78.30
2018-08-13T20:41:43.157Z,78.90
2018-08-13T20:44:12.257Z,79.30
2018-08-13T20:46:40.490Z,80.70
2018-08-13T20:49:09.697Z,80.40
2018-08-13T20:51:38.165Z,80.90
2018-08-13T20:54:07.186Z,81.90
2018-08-13T20:56:36.008Z,82.90
2018-08-13T20:59:04.446Z,83.70
2018-08-13T21:01:33.376Z,84.50
2018-08-13T21:04:02.158Z,85.70
2018-08-13T21:06:30.433Z,87.10
2018-08-13T21:08:58.681Z,88.90
2018-08-13T21:11:27.433Z,89.30
2018-08-13T21:13:55.986Z,90.00
2018-08-13T21:16:27.697Z,90.00
2018-08-13T21:18:58.445Z,90.00
2018-08-13T21:21:26.647Z,90.20
2018-08-13T21:23:56.130Z,90.20
2018-08-13T21:26:24.681Z,90.20
2018-08-13T21:28:53.625Z,90.40
2018-08-13T21:31:21.971Z,90.40
2018-08-13T21:33:50.333Z,90.60
2018-08-13T21:36:19.230Z,90.50
2018-08-13T21:38:48.113Z,90.90
2018-08-13T21:41:16.662Z,91.10
2018-08-13T21:43:44.889Z,91.60
2018-08-13T21:46:13.428Z,91.70
2018-08-13T21:48:41.920Z,91.90
2018-08-13T21:51:10.157Z,92.00
2018-08-13T21:53:38.735Z,92.40
2018-08-13T21:56:07.327Z,92.50
2018-08-13T21:58:36.208Z,92.90
2018-08-13T22:01:09.794Z,92.90
2018-08-13T22:03:38.049Z,93.00
2018-08-13T22:06:06.265Z,93.20
2018-08-13T22:08:34.498Z,93.60
2018-08-13T22:11:02.743Z,93.30
2018-08-13T22:13:31.300Z,93.40
2018-08-13T22:15:59.936Z,93.60
2018-08-13T22:18:28.808Z,93.60
2018-08-13T22:20:57.054Z,93.90
2018-08-13T22:23:25.273Z,94.10
2018-08-13T22:25:53.481Z,94.10
2018-08-13T22:28:22.036Z,94.20
2018-08-13T22:30:50.313Z,94.50
2018-08-13T22:33:18.539Z,94.70
2018-08-13T22:35:47.257Z,94.80
2018-08-13T22:38:15.765Z,95.20
2018-08-13T22:40:43.998Z,95.00
2018-08-13T22:43:12.209Z,95.40
2018-08-13T22:45:40.440Z,95.60
2018-08-13T22:48:08.667Z,95.70
2018-08-13T22:50:37.209Z,95.80
2018-08-13T22:53:05.509Z,96.00
2018-08-13T22:55:33.750Z,96.20
2018-08-13T22:58:02.047Z,96.50
2018-08-13T23:00:30.977Z,96.70
2018-08-13T23:02:59.597Z,96.80
2018-08-13T23:05:28.130Z,97.00
2018-08-13T23:07:56.352Z,97.30
2018-08-13T23:10:25.401Z,97.60
2018-08-13T23:12:54.905Z,97.70
2018-08-13T23:15:23.464Z,98.00
2018-08-13T23:17:52.537Z,98.30
2018-08-13T23:20:21.991Z,98.60
2018-08-13T23:22:52.835Z,99.00
2018-08-13T23:25:21.481Z,99.50
2018-08-13T23:27:51.211Z,99.80
2018-08-13T23:30:19.834Z,99.80
2018-08-13T23:32:49.614Z,99.80
2018-08-13T23:35:18.837Z,99.90
2018-08-13T23:37:47.125Z,99.90
2018-08-13T23:40:15.717Z,99.90
2018-08-13T23:42:44.180Z,99.90
2018-08-13T23:45:14.680Z,99.90
2018-08-13T23:47:42.924Z,99.90
2018-08-13T23:50:13.157Z,99.90
2018-08-13T23:52:41.409Z,99.90
2018-08-13T23:55:15.978Z,99.90
2018-08-13T23:57:44.316Z,99.90
